createdAt,value
2019-03-19T01:13:32.032Z,4.60
2019-03-19T01:18:31.278Z,4.50
2019-03-19T01:21:32.408Z,4.10
2019-03-19T01:32:32.112Z,4.10
2019-03-19T01:33:32.129Z,3.90
2019-03-19T01:39:31.696Z,4.10
2019-03-19T01:42:32.612Z,4.20
2019-03-19T01:43:31.742Z,4.10
2019-03-19T01:44:32.041Z,4.00
2019-03-19T01:45:32.045Z,3.80
2019-03-19T01:47:31.551Z,4.40
2019-03-19T01:48:32.676Z,3.90
2019-03-19T01:51:31.904Z,4.40
2019-03-19T01:54:31.622Z,4.40
2019-03-19T01:55:31.625Z,4.00
2019-03-19T01:56:31.639Z,4.10
2019-03-19T01:57:31.643Z,4.10
2019-03-19T01:58:31.661Z,4.00
2019-03-19T01:59:31.669Z,4.40
2019-03-19T02:00:31.671Z,3.60
2019-03-19T02:01:31.680Z,4.10
2019-03-19T02:02:31.691Z,4.30
2019-03-19T02:03:31.710Z,4.30
2019-03-19T02:04:31.716Z,4.30
2019-03-19T02:05:31.722Z,4.20
2019-03-19T02:06:32.105Z,3.80
2019-03-19T02:09:32.317Z,4.50
2019-03-19T02:10:31.767Z,3.90
2019-03-19T02:11:31.788Z,4.20
2019-03-19T02:12:31.809Z,4.50
2019-03-19T02:13:31.844Z,3.90
2019-03-19T02:14:32.175Z,4.60
2019-03-19T02:15:32.119Z,4.50
2019-03-19T02:16:31.838Z,4.30
2019-03-19T02:17:31.841Z,3.80
2019-03-19T02:18:31.867Z,4.00
2019-03-19T02:19:31.871Z,4.30
2019-03-19T02:20:31.871Z,4.20
2019-03-19T02:21:31.897Z,4.70
2019-03-19T02:22:31.917Z,4.70
2019-03-19T02:23:31.908Z,4.60
2019-03-19T02:24:32.208Z,4.20
2019-03-19T02:25:31.914Z,4.10
2019-03-19T02:26:31.959Z,4.10
2019-03-19T02:27:31.932Z,4.50
2019-03-19T02:28:31.950Z,3.70
2019-03-19T02:29:31.965Z,4.40
2019-03-19T02:30:31.975Z,4.10
2019-03-19T02:31:32.218Z,5.40
2019-03-19T02:32:32.213Z,3.90
2019-03-19T02:33:32.623Z,4.20
2019-03-19T02:34:32.001Z,3.70
2019-03-19T02:35:32.032Z,4.20
2019-03-19T02:36:32.025Z,4.70
2019-03-19T02:37:32.338Z,4.50
2019-03-19T02:38:32.056Z,4.20
2019-03-19T02:39:32.062Z,4.50
2019-03-19T02:40:32.081Z,4.40
2019-03-19T02:41:32.248Z,4.30
2019-03-19T02:42:32.170Z,3.50
2019-03-19T02:43:32.317Z,3.70
2019-03-19T02:44:32.106Z,4.50
2019-03-19T02:45:32.122Z,4.40
2019-03-19T02:46:32.186Z,4.00
2019-03-19T02:47:32.138Z,4.50
2019-03-19T02:48:32.194Z,4.10
2019-03-19T02:49:32.155Z,4.40
2019-03-19T02:50:32.395Z,4.10
2019-03-19T02:51:32.367Z,4.60
2019-03-19T02:52:32.181Z,5.00
2019-03-19T02:53:32.501Z,4.10
2019-03-19T02:54:32.318Z,3.90
2019-03-19T02:55:32.225Z,4.60
2019-03-19T02:56:33.583Z,4.70
2019-03-19T02:57:32.243Z,3.40
2019-03-19T02:58:32.248Z,3.80
2019-03-19T02:59:32.251Z,4.00
2019-03-19T03:00:32.483Z,4.80
2019-03-19T03:01:32.264Z,4.20
2019-03-19T03:02:32.288Z,4.00
2019-03-19T03:03:32.293Z,4.10
2019-03-19T03:04:32.309Z,4.80
2019-03-19T03:05:32.304Z,4.20
2019-03-19T03:06:32.528Z,3.80
2019-03-19T03:07:32.330Z,4.50
2019-03-19T03:08:32.351Z,4.20
2019-03-19T03:09:32.343Z,4.40
2019-03-19T03:10:32.353Z,3.80
2019-03-19T03:11:32.415Z,4.20
2019-03-19T03:13:33.047Z,4.30
2019-03-19T03:14:32.442Z,3.90
2019-03-19T03:15:32.402Z,4.60
2019-03-19T03:16:32.442Z,4.10
2019-03-19T03:17:32.430Z,4.30
2019-03-19T03:18:32.434Z,4.40
2019-03-19T03:19:32.457Z,4.50
2019-03-19T03:20:32.451Z,4.30
2019-03-19T03:21:34.667Z,4.60
2019-03-19T03:22:32.471Z,4.30
2019-03-19T03:23:32.477Z,4.20
2019-03-19T03:24:32.485Z,4.50
2019-03-19T03:25:32.499Z,3.80
2019-03-19T03:26:46.482Z,4.30
2019-03-19T03:27:32.726Z,4.30
2019-03-19T03:28:32.521Z,4.30
2019-03-19T03:29:32.544Z,4.60
2019-03-19T03:30:32.542Z,4.60
2019-03-19T03:31:32.553Z,4.50
2019-03-19T03:32:32.569Z,4.60
2019-03-19T03:33:32.573Z,4.70
2019-03-19T03:34:32.612Z,4.10
2019-03-19T03:35:32.599Z,4.50
2019-03-19T03:36:32.599Z,4.40
2019-03-19T03:37:32.615Z,4.30
2019-03-19T03:38:32.621Z,4.40
2019-03-19T03:39:32.627Z,4.30
2019-03-19T03:40:32.648Z,4.40
2019-03-19T03:41:32.721Z,5.00
2019-03-19T03:42:32.664Z,4.80
2019-03-19T03:43:32.667Z,4.40
2019-03-19T03:44:32.678Z,4.60
2019-03-19T03:45:32.694Z,4.60
2019-03-19T03:46:32.701Z,4.70
2019-03-19T03:47:32.709Z,5.10
2019-03-19T03:48:32.717Z,4.50
2019-03-19T03:49:32.774Z,4.20
2019-03-19T03:50:32.770Z,4.80
2019-03-19T03:51:32.744Z,4.90
2019-03-19T03:52:33.081Z,4.90
2019-03-19T03:53:32.765Z,5.00
2019-03-19T03:54:32.778Z,4.50
2019-03-19T03:55:32.785Z,4.90
2019-03-19T03:56:32.818Z,5.00
2019-03-19T03:57:32.810Z,4.70
2019-03-19T03:58:32.813Z,4.50
2019-03-19T03:59:32.824Z,4.90
2019-03-19T04:00:32.833Z,4.80
2019-03-19T04:01:32.848Z,4.60
2019-03-19T04:03:32.869Z,4.90
2019-03-19T04:04:32.871Z,5.30
2019-03-19T04:05:32.888Z,4.90
2019-03-19T04:06:32.902Z,5.20
2019-03-19T04:07:32.905Z,5.10
2019-03-19T04:08:32.915Z,5.00
2019-03-19T04:09:32.927Z,4.90
2019-03-19T04:10:32.937Z,5.90
2019-03-19T04:11:32.939Z,5.10
2019-03-19T04:12:32.945Z,5.50
2019-03-19T04:13:32.963Z,5.10
2019-03-19T04:15:33.034Z,5.50
2019-03-19T04:16:33.002Z,5.00
2019-03-19T04:17:33.142Z,5.30
2019-03-19T04:18:33.212Z,4.90
2019-03-19T04:19:33.012Z,4.60
2019-03-19T04:20:33.225Z,5.00
2019-03-19T04:21:33.049Z,4.70
2019-03-19T04:22:33.038Z,5.50
2019-03-19T04:23:33.251Z,5.00
2019-03-19T04:24:33.075Z,5.20
2019-03-19T04:25:33.101Z,5.10
2019-03-19T04:26:33.095Z,4.80
2019-03-19T04:27:33.086Z,5.20
2019-03-19T04:28:33.113Z,5.20
2019-03-19T04:29:33.123Z,5.10
2019-03-19T04:30:33.137Z,5.30
2019-03-19T04:31:33.152Z,5.20
2019-03-19T04:32:33.446Z,5.00
2019-03-19T04:33:33.349Z,5.10
2019-03-19T04:34:33.157Z,5.30
2019-03-19T04:35:33.196Z,5.10
2019-03-19T04:36:33.187Z,4.80
2019-03-19T04:37:33.184Z,5.40
2019-03-19T04:38:33.418Z,5.30
2019-03-19T04:39:33.199Z,5.30
2019-03-19T04:40:33.407Z,5.30
2019-03-19T04:41:33.527Z,5.20
2019-03-19T04:42:33.246Z,4.80
2019-03-19T04:43:33.238Z,5.20
2019-03-19T04:44:33.264Z,4.70
2019-03-19T04:45:33.255Z,5.20
2019-03-19T04:46:33.268Z,5.50
2019-03-19T04:47:33.285Z,12.50
2019-03-19T04:48:33.305Z,6.30
2019-03-19T04:49:33.300Z,5.90
2019-03-19T04:50:33.428Z,5.50
2019-03-19T04:51:33.316Z,4.70
2019-03-19T04:52:33.526Z,4.90
2019-03-19T04:53:33.349Z,5.40
2019-03-19T04:54:33.337Z,5.40
2019-03-19T04:55:33.372Z,5.20
2019-03-19T04:56:33.571Z,4.60
2019-03-19T04:57:33.385Z,5.40
2019-03-19T04:58:33.576Z,5.50
2019-03-19T04:59:33.585Z,5.30
2019-03-19T05:00:33.403Z,4.70
2019-03-19T05:01:33.631Z,5.50
2019-03-19T05:02:33.423Z,5.10
2019-03-19T05:03:33.454Z,5.50
2019-03-19T05:04:33.438Z,4.90
2019-03-19T05:05:34.677Z,5.10
2019-03-19T05:06:33.772Z,5.20
2019-03-19T05:07:34.916Z,5.60
2019-03-19T05:08:33.471Z,5.50
2019-03-19T05:09:33.478Z,5.60
2019-03-19T05:10:33.488Z,5.40
2019-03-19T05:11:33.712Z,5.20
2019-03-19T05:12:33.507Z,5.40
2019-03-19T05:13:33.515Z,5.20
2019-03-19T05:14:33.531Z,4.90
2019-03-19T05:15:33.557Z,5.70
2019-03-19T05:16:33.763Z,5.90
2019-03-19T05:17:33.576Z,5.40
2019-03-19T05:18:33.610Z,5.20
2019-03-19T05:19:33.604Z,5.90
2019-03-19T05:20:33.583Z,5.10
2019-03-19T05:21:33.608Z,5.40
2019-03-19T05:22:33.603Z,6.00
2019-03-19T05:23:33.621Z,5.10
2019-03-19T05:24:33.618Z,5.00
2019-03-19T05:25:33.626Z,5.30
2019-03-19T05:26:33.868Z,5.30
2019-03-19T05:27:37.736Z,5.20
2019-03-19T05:28:33.664Z,5.10
2019-03-19T05:29:33.666Z,5.40
2019-03-19T05:30:33.674Z,5.10
2019-03-19T05:31:33.681Z,5.80
2019-03-19T05:32:33.696Z,5.00
2019-03-19T05:33:33.728Z,5.50
2019-03-19T05:34:33.741Z,6.20
2019-03-19T05:35:34.037Z,5.40
2019-03-19T05:36:33.740Z,5.80
2019-03-19T05:37:33.740Z,5.90
2019-03-19T05:38:33.750Z,5.40
2019-03-19T05:39:33.756Z,5.30
2019-03-19T05:40:33.767Z,5.50
2019-03-19T05:41:34.008Z,5.10
2019-03-19T05:42:33.785Z,5.80
2019-03-19T05:43:33.837Z,5.50
2019-03-19T05:44:33.802Z,5.70
2019-03-19T05:45:33.816Z,5.80
2019-03-19T05:46:33.822Z,6.30
2019-03-19T05:47:37.529Z,6.00
2019-03-19T05:48:33.839Z,5.70
2019-03-19T05:49:33.875Z,5.70
2019-03-19T05:50:33.906Z,5.70
2019-03-19T05:51:33.881Z,5.60
2019-03-19T05:52:33.883Z,5.80
2019-03-19T05:53:33.894Z,6.00
2019-03-19T05:54:33.896Z,5.70
2019-03-19T05:55:33.925Z,6.10
2019-03-19T05:56:33.942Z,5.90
2019-03-19T05:57:33.932Z,5.90
2019-03-19T05:58:34.033Z,6.50
2019-03-19T05:59:33.949Z,6.30
2019-03-19T06:00:34.058Z,5.50
2019-03-19T06:01:33.964Z,5.60
2019-03-19T06:02:33.968Z,5.70
2019-03-19T06:03:34.006Z,6.30
2019-03-19T06:04:33.987Z,6.20
2019-03-19T06:05:34.025Z,5.60
2019-03-19T06:06:34.110Z,5.80
2019-03-19T06:07:34.024Z,6.20
2019-03-19T06:08:34.025Z,6.30
2019-03-19T06:09:34.041Z,5.90
2019-03-19T06:10:34.045Z,6.60
2019-03-19T06:11:34.064Z,6.30
2019-03-19T06:12:34.061Z,5.90
2019-03-19T06:13:34.074Z,6.10
2019-03-19T06:14:34.092Z,6.60
2019-03-19T06:15:34.092Z,6.50
2019-03-19T06:16:34.100Z,6.70
2019-03-19T06:17:34.118Z,6.70
2019-03-19T06:18:35.290Z,6.50
2019-03-19T06:19:34.244Z,7.30
2019-03-19T06:20:34.135Z,6.60
2019-03-19T06:21:34.147Z,6.40
2019-03-19T06:22:34.270Z,7.10
2019-03-19T06:23:34.358Z,6.70
2019-03-19T06:24:34.198Z,6.60
2019-03-19T06:25:34.392Z,6.70
2019-03-19T06:26:34.244Z,6.70
2019-03-19T06:27:34.209Z,7.00
2019-03-19T06:28:35.635Z,7.60
2019-03-19T06:29:34.219Z,7.30
2019-03-19T06:30:34.619Z,6.80
2019-03-19T06:31:35.243Z,7.20
2019-03-19T06:32:34.248Z,6.90
2019-03-19T06:33:34.258Z,6.90
2019-03-19T06:34:34.267Z,7.30
2019-03-19T06:35:34.301Z,6.50
2019-03-19T06:36:34.291Z,7.20
2019-03-19T06:37:34.299Z,6.90
2019-03-19T06:38:34.307Z,7.50
2019-03-19T06:39:34.339Z,6.70
2019-03-19T06:40:34.323Z,7.40
2019-03-19T06:41:34.350Z,7.40
2019-03-19T06:42:34.371Z,7.20
2019-03-19T06:43:34.356Z,7.20
2019-03-19T06:44:34.361Z,8.20
2019-03-19T06:45:34.372Z,7.50
2019-03-19T06:46:34.394Z,7.80
2019-03-19T06:47:34.392Z,7.50
2019-03-19T06:48:34.403Z,7.40
2019-03-19T06:49:34.412Z,7.90
2019-03-19T06:50:44.812Z,6.90
2019-03-19T06:51:34.446Z,7.50
2019-03-19T06:53:34.460Z,7.30
2019-03-19T06:54:34.462Z,7.70
2019-03-19T06:55:34.532Z,7.30
2019-03-19T06:56:34.499Z,6.80
2019-03-19T06:57:39.112Z,7.00
2019-03-19T06:58:34.496Z,7.50
2019-03-19T06:59:34.624Z,7.70
2019-03-19T07:00:34.630Z,7.80
2019-03-19T07:01:34.535Z,7.00
2019-03-19T07:02:34.544Z,7.30
2019-03-19T07:03:34.559Z,7.40
2019-03-19T07:04:34.575Z,7.60
2019-03-19T07:05:34.865Z,8.10
2019-03-19T07:06:34.598Z,7.90
2019-03-19T07:07:34.616Z,8.30
2019-03-19T07:08:34.598Z,8.50
2019-03-19T07:09:34.819Z,8.00
2019-03-19T07:10:34.614Z,7.50
2019-03-19T07:11:34.630Z,7.10
2019-03-19T07:12:34.660Z,8.10
2019-03-19T07:13:34.767Z,7.50
2019-03-19T07:14:34.665Z,7.40
2019-03-19T07:15:34.882Z,8.00
2019-03-19T07:16:34.670Z,7.60
2019-03-19T07:17:34.679Z,7.30
2019-03-19T07:18:34.693Z,7.70
2019-03-19T07:20:34.713Z,7.30
2019-03-19T07:21:34.726Z,7.20
2019-03-19T07:22:34.740Z,7.10
2019-03-19T07:23:34.751Z,7.10
2019-03-19T07:24:34.757Z,7.30
2019-03-19T07:25:34.762Z,7.90
2019-03-19T07:26:34.785Z,6.70
2019-03-19T07:27:34.787Z,7.00
2019-03-19T07:28:34.864Z,7.20
2019-03-19T07:29:34.802Z,7.60
2019-03-19T07:30:34.840Z,6.80
2019-03-19T07:31:34.820Z,7.00
2019-03-19T07:32:35.056Z,6.90
2019-03-19T07:33:34.836Z,7.30
2019-03-19T07:34:35.062Z,6.90
2019-03-19T07:35:34.861Z,7.00
2019-03-19T07:36:34.878Z,6.80
2019-03-19T07:37:34.875Z,6.90
2019-03-19T07:38:34.889Z,6.70
2019-03-19T07:39:34.905Z,7.10
2019-03-19T07:40:35.388Z,6.50
2019-03-19T07:41:34.918Z,6.80
2019-03-19T07:42:34.930Z,6.40
2019-03-19T07:43:34.950Z,7.00
2019-03-19T07:44:34.952Z,6.60
2019-03-19T07:45:34.983Z,6.30
2019-03-19T07:46:35.069Z,6.40
2019-03-19T07:47:34.983Z,6.50
2019-03-19T07:48:34.990Z,7.00
2019-03-19T07:49:35.001Z,6.90
2019-03-19T07:50:35.026Z,6.10
2019-03-19T07:51:35.210Z,6.00
2019-03-19T07:52:35.030Z,6.80
2019-03-19T07:53:35.043Z,6.20
2019-03-19T07:54:35.058Z,6.00
2019-03-19T07:55:35.176Z,6.40
2019-03-19T07:56:35.172Z,5.80
2019-03-19T07:57:37.426Z,7.10
2019-03-19T07:58:44.721Z,6.60
2019-03-19T07:59:35.131Z,7.20
2019-03-19T08:00:35.360Z,6.30
2019-03-19T08:01:35.186Z,6.20
2019-03-19T08:02:35.147Z,6.50
2019-03-19T08:03:35.151Z,6.40
2019-03-19T08:04:35.153Z,6.20
2019-03-19T08:05:35.172Z,5.90
2019-03-19T08:06:35.175Z,6.30
2019-03-19T08:07:35.207Z,6.20
2019-03-19T08:08:35.205Z,6.10
2019-03-19T08:09:35.280Z,6.60
2019-03-19T08:10:35.222Z,6.30
2019-03-19T08:11:35.234Z,6.10
2019-03-19T08:12:35.241Z,6.00
2019-03-19T08:13:35.866Z,6.50
2019-03-19T08:14:35.483Z,5.90
2019-03-19T08:15:37.049Z,6.10
2019-03-19T08:16:37.983Z,6.20
2019-03-19T08:17:37.893Z,5.90
2019-03-19T08:18:36.281Z,6.10
2019-03-19T08:19:35.326Z,6.20
2019-03-19T08:20:35.382Z,5.90
2019-03-19T08:21:35.463Z,5.80
2019-03-19T08:22:35.361Z,6.30
2019-03-19T08:23:35.458Z,6.10
2019-03-19T08:24:35.374Z,6.30
2019-03-19T08:25:35.377Z,5.90
2019-03-19T08:26:35.393Z,6.10
2019-03-19T08:27:35.402Z,5.90
2019-03-19T08:28:35.414Z,6.40
2019-03-19T08:29:35.424Z,5.80
2019-03-19T08:30:35.434Z,6.40
2019-03-19T08:31:35.446Z,5.80
2019-03-19T08:32:35.457Z,5.90
2019-03-19T08:33:35.472Z,6.00
2019-03-19T08:34:36.400Z,6.00
2019-03-19T08:35:35.518Z,6.00
2019-03-19T08:36:35.502Z,6.00
2019-03-19T08:37:35.658Z,5.90
2019-03-19T08:38:35.552Z,5.50
2019-03-19T08:39:36.613Z,6.10
2019-03-19T08:40:36.585Z,5.90
2019-03-19T08:41:35.987Z,6.20
2019-03-19T08:42:35.568Z,6.30
2019-03-19T08:43:35.733Z,5.50
2019-03-19T08:44:35.602Z,6.20
2019-03-19T08:45:35.624Z,6.20
2019-03-19T08:46:35.633Z,5.70
2019-03-19T08:47:35.631Z,5.60
2019-03-19T08:48:37.399Z,5.70
2019-03-19T08:49:35.648Z,5.90
2019-03-19T08:50:35.677Z,5.30
2019-03-19T08:51:35.685Z,5.90
2019-03-19T08:52:35.987Z,5.70
2019-03-19T08:53:35.692Z,5.30
2019-03-19T08:54:35.718Z,5.60
2019-03-19T08:55:36.014Z,5.70
2019-03-19T08:56:38.311Z,5.90
2019-03-19T08:57:35.752Z,5.80
2019-03-19T08:58:36.032Z,5.40
2019-03-19T08:59:35.775Z,5.50
2019-03-19T09:01:35.855Z,5.40
2019-03-19T09:02:35.815Z,5.50
2019-03-19T09:03:36.869Z,5.50
2019-03-19T09:04:35.814Z,5.70
2019-03-19T09:05:35.836Z,5.60
2019-03-19T09:06:36.048Z,5.60
2019-03-19T09:07:36.053Z,5.20
2019-03-19T09:09:35.888Z,5.10
2019-03-19T09:10:35.907Z,5.70
2019-03-19T09:12:36.109Z,5.00
2019-03-19T09:13:36.136Z,4.50
2019-03-19T09:14:35.961Z,4.20
2019-03-19T09:16:35.986Z,4.40
2019-03-19T09:17:36.226Z,4.20
2019-03-19T09:18:36.397Z,4.50
2019-03-19T09:19:35.994Z,4.20
2019-03-19T09:20:36.222Z,4.10
2019-03-19T09:21:36.264Z,4.10
2019-03-19T09:22:36.037Z,4.40
2019-03-19T09:23:36.036Z,3.90
2019-03-19T09:24:36.151Z,4.10
2019-03-19T09:25:36.078Z,4.30
2019-03-19T09:26:36.082Z,3.40
2019-03-19T09:27:36.103Z,3.40
2019-03-19T09:28:36.095Z,3.20
2019-03-19T09:29:36.114Z,3.30
2019-03-19T09:30:36.150Z,3.40
2019-03-19T09:31:36.132Z,3.60
2019-03-19T09:32:36.148Z,3.30
2019-03-19T09:33:36.164Z,3.30
2019-03-19T09:34:36.171Z,3.60
2019-03-19T09:35:36.187Z,3.60
2019-03-19T09:36:36.195Z,4.50
2019-03-19T09:37:36.199Z,4.00
2019-03-19T09:38:36.218Z,3.70
2019-03-19T09:39:36.233Z,3.50
2019-03-19T09:40:36.250Z,3.30
2019-03-19T09:41:36.262Z,3.50
2019-03-19T09:42:36.438Z,3.50
2019-03-19T09:43:36.278Z,3.50
2019-03-19T09:44:36.287Z,3.30
2019-03-19T09:45:36.317Z,3.40
2019-03-19T09:46:36.323Z,4.40
2019-03-19T09:47:38.498Z,3.20
2019-03-19T09:48:36.385Z,3.30
2019-03-19T09:49:36.345Z,5.20
2019-03-19T09:50:36.432Z,3.60
2019-03-19T09:51:36.427Z,3.10
2019-03-19T09:52:36.387Z,2.70
2019-03-19T09:53:36.397Z,3.30
2019-03-19T09:54:36.440Z,3.40
2019-03-19T09:55:36.415Z,3.60
2019-03-19T09:56:36.439Z,3.40
2019-03-19T09:57:36.499Z,3.70
2019-03-19T09:58:36.458Z,3.80
2019-03-19T09:59:36.465Z,3.90
2019-03-19T10:00:36.480Z,3.60
2019-03-19T10:01:36.489Z,3.50
2019-03-19T10:02:36.497Z,3.40
2019-03-19T10:04:36.526Z,2.80
2019-03-19T10:05:36.531Z,2.80
2019-03-19T10:06:36.546Z,3.20
2019-03-19T10:07:36.556Z,2.70
2019-03-19T10:08:36.879Z,2.80
2019-03-19T10:09:36.584Z,2.80
2019-03-19T10:10:36.673Z,3.10
2019-03-19T10:12:36.648Z,2.60
2019-03-19T10:13:40.558Z,2.60
2019-03-19T10:14:37.089Z,3.10
2019-03-19T10:15:36.869Z,2.40
2019-03-19T10:16:36.676Z,3.00
2019-03-19T10:17:38.127Z,2.50
2019-03-19T10:18:36.690Z,2.60
2019-03-19T10:19:37.036Z,2.80
2019-03-19T10:20:36.734Z,2.50
2019-03-19T10:21:36.737Z,2.40
2019-03-19T10:22:36.739Z,2.50
2019-03-19T10:23:36.888Z,2.90
2019-03-19T10:24:37.381Z,2.50
2019-03-19T10:25:38.118Z,2.50
2019-03-19T10:26:36.798Z,2.70
2019-03-19T10:27:36.848Z,2.60
2019-03-19T10:28:36.841Z,2.10
2019-03-19T10:29:38.473Z,2.20
2019-03-19T10:30:36.851Z,2.20
2019-03-19T10:31:37.057Z,2.80
2019-03-19T10:32:38.237Z,2.50
2019-03-19T10:33:36.881Z,2.30
2019-03-19T10:34:36.920Z,2.80
2019-03-19T10:35:37.211Z,2.40
2019-03-19T10:36:36.929Z,2.20
2019-03-19T10:37:36.928Z,2.90
2019-03-19T10:38:36.941Z,2.20
2019-03-19T10:39:36.958Z,2.30
2019-03-19T10:40:36.972Z,2.60
2019-03-19T10:41:36.980Z,2.60
2019-03-19T10:42:37.153Z,2.50
2019-03-19T10:43:37.007Z,2.60
2019-03-19T10:44:37.041Z,2.40
2019-03-19T10:45:37.034Z,2.50
2019-03-19T10:46:37.069Z,2.20
2019-03-19T10:47:37.108Z,2.40
2019-03-19T10:48:37.070Z,3.00
2019-03-19T10:49:37.289Z,2.60
2019-03-19T10:50:37.103Z,2.50
2019-03-19T10:51:37.943Z,2.60
2019-03-19T10:52:38.432Z,2.50
2019-03-19T10:53:39.354Z,2.20
2019-03-19T10:54:39.243Z,2.40
2019-03-19T10:55:38.970Z,2.20
2019-03-19T10:56:38.883Z,2.80
2019-03-19T10:57:38.264Z,3.10
2019-03-19T10:58:38.192Z,2.30
2019-03-19T10:59:37.211Z,2.70
2019-03-19T11:00:37.297Z,2.60
2019-03-19T11:01:37.246Z,3.20
2019-03-19T11:02:37.391Z,2.60
2019-03-19T11:03:37.266Z,2.40
2019-03-19T11:04:37.299Z,2.30
2019-03-19T11:05:37.302Z,2.50
2019-03-19T11:06:38.083Z,2.40
2019-03-19T11:07:37.344Z,2.30
2019-03-19T11:08:37.332Z,2.90
2019-03-19T11:09:37.413Z,2.30
2019-03-19T11:10:37.359Z,2.30
2019-03-19T11:11:37.370Z,2.50
2019-03-19T11:12:37.470Z,2.50
2019-03-19T11:13:37.404Z,2.30
2019-03-19T11:14:37.449Z,2.40
2019-03-19T11:15:37.439Z,2.70
2019-03-19T11:16:37.470Z,2.60
2019-03-19T11:17:37.442Z,2.00
2019-03-19T11:18:37.473Z,2.90
2019-03-19T11:19:37.481Z,2.30
2019-03-19T11:20:37.484Z,2.50
2019-03-19T11:21:37.505Z,2.40
2019-03-19T11:22:37.504Z,2.30
2019-03-19T11:23:37.530Z,2.50
2019-03-19T11:24:37.983Z,2.30
2019-03-19T11:25:37.754Z,2.80
2019-03-19T11:26:37.781Z,2.60
2019-03-19T11:27:37.607Z,2.40
2019-03-19T11:28:37.604Z,2.50
2019-03-19T11:30:37.617Z,2.30
2019-03-19T11:31:37.956Z,2.50
2019-03-19T11:32:37.841Z,2.60
2019-03-19T11:34:37.883Z,2.40
2019-03-19T11:35:37.920Z,2.30
2019-03-19T11:36:38.946Z,2.30
2019-03-19T11:37:38.748Z,2.40
2019-03-19T11:39:37.734Z,2.30
2019-03-19T11:40:37.774Z,2.40
2019-03-19T11:41:37.965Z,2.40
2019-03-19T11:42:38.551Z,2.70
2019-03-19T11:43:38.059Z,2.30
2019-03-19T11:44:38.228Z,2.00
2019-03-19T11:45:37.838Z,2.10
2019-03-19T11:46:37.854Z,2.20
2019-03-19T11:47:37.893Z,2.40
2019-03-19T11:48:38.277Z,2.70
2019-03-19T11:49:37.941Z,2.60
2019-03-19T11:50:37.900Z,2.70
2019-03-19T11:51:37.890Z,3.10
2019-03-19T11:52:40.158Z,2.80
2019-03-19T11:53:38.030Z,2.90
2019-03-19T11:54:37.944Z,2.50
2019-03-19T11:55:37.985Z,2.80
2019-03-19T11:56:38.159Z,2.70
2019-03-19T11:57:38.954Z,2.20
2019-03-19T11:58:37.975Z,2.40
2019-03-19T11:59:38.009Z,1.90
2019-03-19T12:00:38.226Z,2.10
2019-03-19T12:02:38.041Z,2.90
2019-03-19T12:03:38.046Z,2.40
2019-03-19T12:04:38.056Z,2.80
2019-03-19T12:05:38.069Z,2.50
2019-03-19T12:06:38.098Z,2.70
2019-03-19T12:07:38.118Z,2.40
2019-03-19T12:08:38.119Z,2.50
2019-03-19T12:10:38.215Z,2.20
2019-03-19T12:11:38.140Z,2.40
2019-03-19T12:12:38.184Z,2.30
2019-03-19T12:13:38.208Z,2.40
2019-03-19T12:14:38.194Z,2.60
2019-03-19T12:15:38.195Z,2.10
2019-03-19T12:16:38.302Z,2.20
2019-03-19T12:17:38.863Z,2.20
2019-03-19T12:18:39.225Z,2.20
2019-03-19T12:19:38.905Z,2.20
2019-03-19T12:21:38.510Z,2.50
2019-03-19T12:23:38.513Z,2.10
2019-03-19T12:24:38.452Z,2.60
2019-03-19T12:25:38.613Z,2.40
2019-03-19T12:26:39.091Z,2.40
2019-03-19T12:27:38.485Z,2.20
2019-03-19T12:30:38.426Z,2.40
2019-03-19T12:33:41.294Z,2.30
2019-03-19T12:35:38.494Z,2.80
2019-03-19T12:38:38.823Z,2.40
2019-03-19T12:41:38.573Z,2.60
2019-03-19T12:45:38.869Z,2.40
2019-03-19T12:52:38.909Z,2.40
2019-03-19T12:55:39.874Z,2.60
2019-03-19T12:57:39.193Z,2.20
2019-03-19T12:58:40.045Z,2.70
2019-03-19T13:04:38.867Z,2.20
2019-03-19T13:06:38.896Z,2.80
2019-03-19T13:12:39.671Z,2.50
2019-03-19T13:13:40.970Z,2.40
2019-03-19T13:21:39.103Z,2.50
2019-03-19T13:25:39.653Z,2.50
2019-03-19T13:27:39.597Z,2.70
2019-03-19T13:31:39.517Z,2.70
2019-03-19T13:33:40.308Z,3.00
2019-03-19T13:49:40.155Z,2.70
2019-03-19T13:51:39.828Z,2.50
2019-03-19T13:53:39.715Z,2.50
2019-03-19T13:55:39.925Z,2.50
2019-03-19T13:58:40.508Z,2.80
2019-03-19T13:59:39.618Z,2.80
2019-03-19T14:00:39.637Z,2.40
2019-03-19T14:01:39.640Z,2.90
2019-03-19T14:03:39.712Z,2.70
2019-03-19T14:04:39.680Z,2.70
2019-03-19T14:05:39.693Z,2.60
2019-03-19T14:06:39.718Z,2.60
2019-03-19T14:08:39.823Z,2.50
2019-03-19T14:09:39.759Z,2.40
2019-03-19T14:10:39.789Z,2.50
2019-03-19T14:11:39.813Z,2.70
2019-03-19T14:12:39.804Z,2.40
2019-03-19T14:13:39.836Z,2.40
2019-03-19T14:14:39.837Z,2.30
2019-03-19T14:15:39.855Z,2.80
2019-03-19T14:16:39.870Z,2.60
2019-03-19T14:17:39.866Z,2.90
2019-03-19T14:18:39.889Z,2.40
2019-03-19T14:19:40.442Z,3.00
2019-03-19T14:20:40.243Z,2.40
2019-03-19T14:21:39.930Z,2.30
2019-03-19T14:22:40.678Z,2.70
2019-03-19T14:24:40.023Z,2.60
2019-03-19T14:25:39.997Z,2.50
2019-03-19T14:26:40.114Z,2.70
2019-03-19T14:27:40.125Z,2.50
2019-03-19T14:28:40.057Z,2.50
2019-03-19T14:29:40.244Z,3.00
2019-03-19T14:30:40.312Z,3.10
2019-03-19T14:31:40.089Z,2.70
2019-03-19T14:32:40.113Z,2.60
2019-03-19T14:34:40.110Z,2.60
2019-03-19T14:35:40.222Z,2.60
2019-03-19T14:36:40.463Z,2.80
2019-03-19T14:37:40.163Z,2.90
2019-03-19T14:38:47.087Z,2.80
2019-03-19T14:39:40.275Z,2.90
2019-03-19T14:40:40.211Z,2.70
2019-03-19T14:41:40.242Z,2.50
2019-03-19T14:42:40.243Z,2.80
2019-03-19T14:43:40.300Z,2.70
2019-03-19T14:44:40.264Z,3.10
2019-03-19T14:45:40.282Z,2.50
2019-03-19T14:46:40.345Z,2.60
2019-03-19T14:47:40.407Z,2.70
2019-03-19T14:48:40.345Z,2.30
2019-03-19T14:49:46.576Z,2.50
2019-03-19T14:50:40.379Z,2.90
2019-03-19T14:51:40.378Z,2.80
2019-03-19T14:52:40.405Z,3.30
2019-03-19T14:53:40.391Z,2.70
2019-03-19T14:54:40.422Z,2.80
2019-03-19T14:55:40.446Z,2.80
2019-03-19T14:56:40.449Z,2.70
2019-03-19T14:57:40.452Z,2.60
2019-03-19T14:58:40.611Z,2.50
2019-03-19T14:59:40.485Z,2.40
2019-03-19T15:00:40.498Z,2.40
2019-03-19T15:01:40.519Z,2.90
2019-03-19T15:02:40.524Z,2.50
2019-03-19T15:03:40.533Z,2.90
2019-03-19T15:04:40.562Z,2.50
2019-03-19T15:05:40.571Z,2.70
2019-03-19T15:06:40.587Z,3.00
2019-03-19T15:07:40.664Z,2.80
2019-03-19T15:08:40.629Z,2.60
2019-03-19T15:09:40.641Z,2.80
2019-03-19T15:10:40.655Z,3.00
2019-03-19T15:11:40.867Z,2.50
2019-03-19T15:13:40.694Z,3.00
2019-03-19T15:16:41.163Z,3.10
2019-03-19T15:17:40.786Z,3.10
2019-03-19T15:18:40.781Z,3.10
2019-03-19T15:19:40.769Z,2.90
2019-03-19T15:20:41.573Z,3.10
2019-03-19T15:22:41.569Z,3.10
2019-03-19T15:23:40.882Z,2.80
2019-03-19T15:27:40.894Z,3.10
2019-03-19T15:29:40.911Z,2.80
2019-03-19T15:30:40.920Z,2.50
2019-03-19T15:31:40.934Z,2.90
2019-03-19T15:32:40.997Z,2.80
2019-03-19T15:33:41.342Z,3.10
2019-03-19T15:34:41.010Z,3.30
2019-03-19T15:35:40.996Z,3.00
2019-03-19T15:36:41.043Z,2.80
2019-03-19T15:37:41.012Z,2.90
2019-03-19T15:38:41.483Z,2.60
2019-03-19T15:39:41.063Z,3.10
2019-03-19T15:40:41.098Z,3.20
2019-03-19T15:41:41.075Z,3.20
2019-03-19T15:42:41.098Z,3.10
2019-03-19T15:43:41.100Z,3.00
2019-03-19T15:44:41.131Z,3.00
2019-03-19T15:47:41.175Z,3.40
2019-03-19T15:49:41.219Z,3.50
2019-03-19T15:50:41.216Z,3.10
2019-03-19T15:52:41.934Z,3.10
2019-03-19T15:53:41.310Z,3.10
2019-03-19T15:55:41.458Z,3.20
2019-03-19T15:59:41.533Z,3.00
2019-03-19T16:00:41.347Z,3.00
2019-03-19T16:01:41.340Z,3.10
2019-03-19T16:02:41.564Z,2.70
2019-03-19T16:03:41.390Z,2.90
2019-03-19T16:04:41.405Z,2.70
2019-03-19T16:05:41.397Z,2.70
2019-03-19T16:06:41.408Z,3.00
2019-03-19T16:07:41.441Z,2.90
2019-03-19T16:09:41.954Z,2.80
2019-03-19T16:10:41.775Z,3.20
2019-03-19T16:11:41.585Z,3.10
2019-03-19T16:12:43.589Z,3.00
2019-03-19T16:13:41.502Z,3.50
2019-03-19T16:15:41.733Z,3.50
2019-03-19T16:16:41.556Z,3.90
2019-03-19T16:17:42.175Z,3.30
2019-03-19T16:18:41.566Z,3.30
2019-03-19T16:19:41.608Z,3.00
2019-03-19T16:20:41.821Z,3.10
2019-03-19T16:21:41.626Z,3.10
2019-03-19T16:22:41.835Z,3.10
2019-03-19T16:23:42.144Z,3.10
2019-03-19T16:24:41.943Z,3.20
2019-03-19T16:25:41.668Z,3.30
2019-03-19T16:26:41.677Z,3.00
2019-03-19T16:27:41.701Z,3.60
2019-03-19T16:28:41.724Z,3.30
2019-03-19T16:34:42.698Z,3.50
2019-03-19T16:36:42.711Z,3.70
2019-03-19T16:38:42.061Z,3.50
2019-03-19T16:39:42.750Z,4.00
2019-03-19T16:40:41.885Z,3.10
2019-03-19T16:41:41.879Z,3.10
2019-03-19T16:42:42.098Z,3.20
2019-03-19T16:43:42.116Z,3.00
2019-03-19T16:44:41.943Z,3.30
2019-03-19T16:45:42.038Z,3.70
2019-03-19T16:46:41.942Z,3.20
2019-03-19T16:49:42.280Z,3.00
2019-03-19T16:50:42.015Z,3.40
2019-03-19T16:51:42.015Z,4.10
2019-03-19T16:52:42.054Z,3.50
2019-03-19T16:53:42.092Z,3.30
2019-03-19T16:55:42.744Z,3.10
2019-03-19T16:56:42.708Z,3.40
2019-03-19T16:57:42.381Z,3.20
2019-03-19T16:58:42.314Z,3.50